Time;durP1;ratioP1;P1;durP2;ratioP2;P2;SDS_P1;SDS_P2;PMS_P1;PMS_P2;Temp;Humidity;BMP_temperature;BMP_pressure;BME280_temperature;BME280_humidity;BME280_pressure;Samples;Min_cycle;Max_cycle;Signal;HPM_P1;HPM_P2
2024/02/10 00:04:35;;;;;;;1999.90;999.90;;;;;;;9.13;100.00;98520.53;10218585;29;20052;-68
2024/02/10 00:09:37;;;;;;;1999.90;999.90;;;;;;;9.21;100.00;98511.09;10218198;29;20055;-68
2024/02/10 00:14:43;;;;;;;1999.90;999.90;;;;;;;9.31;100.00;98505.84;10217302;29;20075;-68
2024/02/10 00:19:49;;;;;;;1999.90;999.90;;;;;;;9.19;100.00;98509.56;10218052;29;20054;-68
2024/02/10 00:24:54;;;;;;;1999.90;999.90;;;;;;;9.32;100.00;98507.53;10231916;23;20143;-68
2024/02/10 00:29:56;;;;;;;1999.90;999.90;;;;;;;9.58;100.00;98513.03;10218344;29;20051;-68
2024/02/10 00:34:58;;;;;;;1999.90;999.90;;;;;;;9.52;100.00;98504.94;10218039;29;20054;-68
2024/02/10 00:40:03;;;;;;;1999.90;999.90;;;;;;;9.60;100.00;98507.66;10217221;29;20470;-68
2024/02/10 00:45:06;;;;;;;1999.90;999.90;;;;;;;9.37;100.00;98512.34;10217769;29;20123;-69
2024/02/10 00:50:09;;;;;;;1999.90;999.90;;;;;;;9.58;100.00;98513.03;10217533;29;20059;-68
2024/02/10 00:55:11;;;;;;;1999.90;999.90;;;;;;;9.62;100.00;98510.97;10216649;29;20501;-68
2024/02/10 01:00:17;;;;;;;1999.90;999.90;;;;;;;9.79;100.00;98506.84;10215310;29;20051;-66
2024/02/10 01:05:21;;;;;;;1999.90;999.90;;;;;;;9.66;100.00;98507.13;10216345;29;20083;-68
2024/02/10 01:10:23;;;;;;;1999.90;999.90;;;;;;;9.97;100.00;98509.56;10217111;29;20095;-69
2024/02/10 01:15:30;;;;;;;1999.90;999.90;;;;;;;9.65;100.00;98514.13;10215423;29;20062;-69
2024/02/10 01:20:32;;;;;;;1999.90;999.90;;;;;;;9.69;100.00;98513.88;10216459;29;20052;-69
2024/02/10 01:25:35;;;;;;;1999.90;999.90;;;;;;;9.65;100.00;98510.72;10214983;29;20087;-68
2024/02/10 01:30:37;;;;;;;1999.90;999.90;;;;;;;9.60;100.00;98515.50;10215947;29;20059;-69
2024/02/10 01:35:40;;;;;;;1999.90;999.90;;;;;;;9.53;100.00;98519.63;10215252;29;20052;-68
2024/02/10 01:40:42;;;;;;;1999.90;999.90;;;;;;;9.52;100.00;98529.25;10215692;29;20054;-69
2024/02/10 01:45:51;;;;;;;1999.90;999.90;;;;;;;9.67;100.00;98522.66;10215597;29;20085;-69
2024/02/10 01:50:53;;;;;;;1999.90;999.90;;;;;;;9.69;100.00;98519.91;10215349;29;20134;-69
2024/02/10 01:55:58;;;;;;;1999.90;999.90;;;;;;;9.65;100.00;98511.53;10214162;29;20052;-68
2024/02/10 02:01:00;;;;;;;1999.90;999.90;;;;;;;9.54;100.00;98514.25;10213440;29;20511;-69
2024/02/10 02:06:03;;;;;;;1999.90;999.90;;;;;;;9.69;100.00;98517.28;10213831;29;20111;-69
2024/02/10 02:11:05;;;;;;;1999.90;999.90;;;;;;;9.70;100.00;98512.88;10214822;29;20044;-68
2024/02/10 02:16:11;;;;;;;1999.90;999.90;;;;;;;9.63;100.00;98518.69;10214793;29;20061;-68
2024/02/10 02:21:15;;;;;;;1999.90;999.90;;;;;;;9.89;100.00;98512.88;10213651;29;20047;-68
2024/02/10 02:26:17;;;;;;;1999.90;999.90;;;;;;;9.57;100.00;98521.03;10213857;29;20056;-69
2024/02/10 02:31:19;;;;;;;1999.90;999.90;;;;;;;9.60;100.00;98523.31;10214473;29;20052;-69
2024/02/10 02:36:22;;;;;;;1999.90;999.90;;;;;;;9.68;100.00;98515.63;10213597;29;20107;-66
2024/02/10 02:41:25;;;;;;;1999.90;999.90;;;;;;;9.43;100.00;98520.47;10221204;29;20049;-66
2024/02/10 02:46:28;;;;;;;1999.90;999.90;;;;;;;9.53;100.00;98528.31;10222045;29;20418;-67
2024/02/10 02:51:30;;;;;;;1999.90;999.90;;;;;;;9.80;100.00;98518.94;10221328;29;20058;-66
2024/02/10 02:56:32;;;;;;;1999.90;999.90;;;;;;;9.75;100.00;98505.44;10221808;29;20058;-66
2024/02/10 03:01:35;;;;;;;1999.90;999.90;;;;;;;9.65;100.00;98492.41;10221623;29;20059;-66
2024/02/10 03:06:37;;;;;;;1999.90;999.90;;;;;;;9.82;100.00;98493.50;10221365;29;20056;-66
2024/02/10 03:11:40;;;;;;;1999.90;999.90;;;;;;;9.85;100.00;98491.44;10220516;29;20048;-69
2024/02/10 03:16:44;;;;;;;1999.90;999.90;;;;;;;9.78;100.00;98497.34;10219895;29;20052;-69
2024/02/10 03:21:47;;;;;;;1999.90;999.90;;;;;;;9.87;100.00;98488.69;10220234;29;20416;-69
2024/02/10 03:26:50;;;;;;;1999.90;999.90;;;;;;;9.59;100.00;98487.75;10220601;29;20477;-66
2024/02/10 03:31:53;;;;;;;1999.90;999.90;;;;;;;10.01;100.00;98475.16;10220425;29;20052;-66
2024/02/10 03:36:55;;;;;;;1999.90;999.90;;;;;;;10.06;100.00;98466.88;10219718;29;20074;-66
2024/02/10 03:41:57;;;;;;;1999.90;999.90;;;;;;;9.66;100.00;98481.81;10202818;29;20462;-66
2024/02/10 03:47:00;;;;;;;1999.90;999.90;;;;;;;9.46;100.00;98486.25;10220006;29;20156;-66
2024/02/10 03:52:03;;;;;;;1999.90;999.90;;;;;;;9.61;100.00;98499.69;10217905;29;20134;-67
2024/02/10 03:57:06;;;;;;;1999.90;999.90;;;;;;;9.36;100.00;98505.47;10219029;29;20475;-66
2024/02/10 04:02:08;;;;;;;1999.90;999.90;;;;;;;9.57;100.00;98497.50;10219413;29;20052;-66
2024/02/10 04:07:12;;;;;;;1999.90;999.90;;;;;;;9.34;100.00;98491.72;10218069;29;20087;-66
2024/02/10 04:12:14;;;;;;;1999.90;999.90;;;;;;;9.35;100.00;98493.38;10218957;29;20079;-66
2024/02/10 04:17:17;;;;;;;1999.90;999.90;;;;;;;9.32;100.00;98499.69;10218379;29;20078;-66
2024/02/10 04:22:23;;;;;;;1999.90;999.90;;;;;;;8.98;100.00;98507.88;10218341;29;20043;-66
2024/02/10 04:27:25;;;;;;;1999.90;999.90;;;;;;;9.27;100.00;98510.53;10218478;29;20064;-66
2024/02/10 04:32:27;;;;;;;1999.90;999.90;;;;;;;8.88;100.00;98509.66;10217008;29;20058;-66
2024/02/10 04:37:30;;;;;;;1999.90;999.90;;;;;;;8.86;100.00;98514.16;10218069;29;20134;-66
2024/02/10 04:42:32;;;;;;;1999.90;999.90;;;;;;;8.89;100.00;98516.50;10218307;29;20099;-66
2024/02/10 04:47:35;;;;;;;1999.90;999.90;;;;;;;8.93;100.00;98516.09;10217647;29;20047;-67
2024/02/10 04:52:38;;;;;;;1999.90;999.90;;;;;;;8.83;100.00;98514.44;10216226;29;20043;-66
2024/02/10 04:57:41;;;;;;;1999.90;999.90;;;;;;;9.12;100.00;98524.94;10216158;29;20048;-66
2024/02/10 05:02:45;;;;;;;1999.90;999.90;;;;;;;8.90;100.00;98516.38;10215428;29;20048;-66
2024/02/10 05:07:55;;;;;;;1999.90;999.90;;;;;;;8.87;100.00;98528.84;10215730;29;20083;-66
2024/02/10 05:12:58;;;;;;;1999.90;999.90;;;;;;;8.79;100.00;98526.91;10216674;29;20135;-66
2024/02/10 05:18:04;;;;;;;1999.90;999.90;;;;;;;8.70;100.00;98532.91;10216517;29;20047;-66
2024/02/10 05:23:11;;;;;;;1999.90;999.90;;;;;;;8.64;100.00;98523.00;10216089;29;20102;-67
2024/02/10 05:28:15;;;;;;;1999.90;999.90;;;;;;;8.65;100.00;98522.06;10216211;29;20047;-66
2024/02/10 05:33:18;;;;;;;1999.90;999.90;;;;;;;8.63;100.00;98526.59;10214857;29;20130;-66
2024/02/10 05:38:21;;;;;;;1999.90;999.90;;;;;;;8.65;100.00;98528.09;10215879;29;20083;-66
2024/02/10 05:43:24;;;;;;;1999.90;999.90;;;;;;;8.54;100.00;98529.03;10215046;29;20487;-66
2024/02/10 05:48:29;;;;;;;1999.90;999.90;;;;;;;8.68;100.00;98538.25;10215517;29;20165;-66
2024/02/10 05:53:32;;;;;;;1999.90;999.90;;;;;;;8.63;100.00;98543.06;10215301;29;20054;-66
2024/02/10 05:58:34;;;;;;;1999.90;999.90;;;;;;;8.78;100.00;98545.31;10215238;29;20115;-66
2024/02/10 06:03:37;;;;;;;1999.90;999.90;;;;;;;8.63;100.00;98540.44;10213363;29;20451;-66
2024/02/10 06:08:40;;;;;;;1999.90;999.90;;;;;;;8.69;100.00;98546.91;10214348;29;20419;-67
2024/02/10 06:13:46;;;;;;;1999.90;999.90;;;;;;;8.71;100.00;98560.69;10213894;29;20484;-69
2024/02/10 06:18:49;;;;;;;1999.90;999.90;;;;;;;8.75;100.00;98572.50;10214860;29;20087;-68
2024/02/10 06:23:52;;;;;;;1999.90;999.90;;;;;;;8.70;100.00;98567.66;10214058;29;20420;-68
2024/02/10 06:28:58;;;;;;;1999.90;999.90;;;;;;;8.70;100.00;98570.25;10214545;29;20123;-69
2024/02/10 06:34:01;;;;;;;1999.90;999.90;;;;;;;8.97;100.00;98573.25;10213845;29;20488;-68
2024/02/10 06:39:04;;;;;;;1999.90;999.90;;;;;;;8.81;100.00;98587.63;10214445;29;20052;-66
2024/02/10 06:44:07;;;;;;;1999.90;999.90;;;;;;;8.82;100.00;98589.25;10213703;29;20055;-66
2024/02/10 06:49:09;;;;;;;1999.90;999.90;;;;;;;8.80;100.00;98596.41;10213610;29;20127;-66
2024/02/10 06:54:12;;;;;;;1999.90;999.90;;;;;;;8.90;100.00;98599.88;10214003;29;20044;-66
2024/02/10 06:59:15;;;;;;;1999.90;999.90;;;;;;;8.81;100.00;98612.88;10213570;29;20063;-66
2024/02/10 07:04:17;;;;;;;1999.90;999.90;;;;;;;8.77;100.00;98612.31;10214452;29;20051;-66
2024/02/10 07:09:21;;;;;;;1999.90;999.90;;;;;;;9.07;100.00;98615.88;10213848;29;20103;-66
2024/02/10 07:14:23;;;;;;;1999.90;999.90;;;;;;;9.01;100.00;98619.00;10212561;29;20048;-66
2024/02/10 07:19:26;;;;;;;1999.90;999.90;;;;;;;9.03;100.00;98611.91;10213665;29;20058;-67
2024/02/10 07:24:28;;;;;;;1999.90;999.90;;;;;;;9.23;100.00;98613.59;10214616;29;20502;-66
2024/02/10 07:29:35;;;;;;;1999.90;999.90;;;;;;;8.93;100.00;98610.06;10220718;29;20056;-66
2024/02/10 07:34:37;;;;;;;1999.90;999.90;;;;;;;8.97;100.00;98605.41;10219893;29;20507;-66
2024/02/10 07:39:43;;;;;;;1999.90;999.90;;;;;;;9.07;100.00;98621.91;10220308;29;20059;-67
2024/02/10 07:44:47;;;;;;;1999.90;999.90;;;;;;;9.04;100.00;98626.56;10220699;29;20132;-66
2024/02/10 07:49:52;;;;;;;1999.90;999.90;;;;;;;9.23;100.00;98636.25;10219309;29;20491;-66
2024/02/10 07:54:58;;;;;;;1999.90;999.90;;;;;;;8.96;100.00;98627.25;10218657;29;20050;-66
2024/02/10 08:00:04;;;;;;;1999.90;999.90;;;;;;;9.06;100.00;98630.72;10218555;29;20103;-67
2024/02/10 08:05:06;;;;;;;1999.90;999.90;;;;;;;9.26;100.00;98649.06;10219481;29;20459;-68
2024/02/10 08:10:09;;;;;;;1999.90;999.90;;;;;;;9.29;100.00;98643.56;10219247;29;20062;-70
2024/02/10 08:15:11;;;;;;;1999.90;999.90;;;;;;;9.24;100.00;98636.13;10218960;29;20054;-70
2024/02/10 08:20:14;;;;;;;1999.90;999.90;;;;;;;9.29;100.00;98643.56;10218704;29;20055;-71
2024/02/10 08:25:18;;;;;;;1999.90;999.90;;;;;;;9.61;100.00;98645.16;10217132;29;20063;-70
2024/02/10 08:30:21;;;;;;;1999.90;999.90;;;;;;;9.65;100.00;98646.56;10217039;29;20131;-71
2024/02/10 08:35:27;;;;;;;1999.90;999.90;;;;;;;9.51;100.00;98641.72;10218027;29;20058;-71
2024/02/10 08:40:30;;;;;;;1999.90;999.90;;;;;;;9.70;100.00;98646.16;10218047;29;20118;-70
2024/02/10 08:45:32;;;;;;;1999.90;999.90;;;;;;;9.69;100.00;98647.94;10216621;29;20055;-71
2024/02/10 08:50:35;;;;;;;1999.90;999.90;;;;;;;9.70;100.00;98652.22;10216430;29;20047;-70
2024/02/10 08:55:37;;;;;;;1999.90;999.90;;;;;;;9.80;100.00;98660.91;10217200;29;20075;-70
2024/02/10 09:00:40;;;;;;;1999.90;999.90;;;;;;;10.03;100.00;98656.22;10217066;29;20047;-71
2024/02/10 09:05:43;;;;;;;1999.90;999.90;;;;;;;10.13;100.00;98651.00;10215455;29;20052;-68
2024/02/10 09:10:45;;;;;;;1999.90;999.90;;;;;;;10.36;100.00;98651.56;10216217;29;20083;-68
2024/02/10 09:15:47;;;;;;;1999.90;999.90;;;;;;;10.55;100.00;98660.38;10216585;29;20079;-68
2024/02/10 09:20:50;;;;;;;1999.90;999.90;;;;;;;10.54;100.00;98658.69;10216495;29;20059;-68
2024/02/10 09:25:53;;;;;;;1999.90;999.90;;;;;;;10.88;100.00;98659.06;10215929;29;20135;-68
2024/02/10 09:30:56;;;;;;;1999.90;999.90;;;;;;;10.80;100.00;98665.97;10216152;29;20055;-68
2024/02/10 09:35:58;;;;;;;1999.90;999.90;;;;;;;10.88;100.00;98656.44;10215890;29;20060;-68
2024/02/10 09:41:00;;;;;;;1999.90;999.90;;;;;;;11.25;100.00;98652.19;10215670;29;20483;-68
2024/02/10 09:46:07;;;;;;;1999.90;999.90;;;;;;;11.18;100.00;98653.72;10213478;29;20048;-68
2024/02/10 09:51:10;;;;;;;1999.90;999.90;;;;;;;11.83;100.00;98657.06;10214402;29;20048;-68
2024/02/10 09:56:14;;;;;;;1999.90;999.90;;;;;;;12.03;100.00;98651.72;10214501;29;20052;-68
2024/02/10 10:01:16;;;;;;;1999.90;999.90;;;;;;;11.59;100.00;98655.03;10215719;29;20134;-68
2024/02/10 10:06:22;;;;;;;1999.90;999.90;;;;;;;11.93;100.00;98658.84;10214383;29;20047;-68
2024/02/10 10:11:25;;;;;;;1999.90;999.90;;;;;;;11.92;100.00;98662.44;10215012;29;20059;-68
2024/02/10 10:16:27;;;;;;;1999.90;999.90;;;;;;;11.76;100.00;98661.25;10213707;29;20050;-68
2024/02/10 10:21:30;;;;;;;1999.90;999.90;;;;;;;12.11;100.00;98669.34;10213619;29;20047;-68
2024/02/10 10:26:33;;;;;;;1999.90;999.90;;;;;;;12.19;100.00;98662.38;10214089;29;20142;-68
2024/02/10 10:31:37;;;;;;;1999.90;999.90;;;;;;;12.20;100.00;98663.19;10213407;29;20056;-68
2024/02/10 10:36:41;;;;;;;1999.90;999.90;;;;;;;12.13;100.00;98667.41;10213215;29;20427;-68
2024/02/10 10:41:44;;;;;;;1999.90;999.90;;;;;;;11.96;100.00;98662.00;10213252;29;20051;-68
2024/02/10 10:46:47;;;;;;;1999.90;999.90;;;;;;;12.27;100.00;98657.22;10212549;29;20138;-68
2024/02/10 10:51:52;;;;;;;1999.90;999.90;;;;;;;12.20;100.00;98657.94;10212987;29;20056;-68
2024/02/10 10:56:55;;;;;;;1999.90;999.90;;;;;;;12.12;100.00;98657.88;10214150;29;20051;-68
2024/02/10 11:01:57;;;;;;;1999.90;999.90;;;;;;;12.35;100.00;98651.19;10218683;29;20056;-68
2024/02/10 11:07:08;;;;;;;1999.90;999.90;;;;;;;12.54;100.00;98649.34;10220349;29;20055;-68
2024/02/10 11:12:15;;;;;;;1999.90;999.90;;;;;;;12.72;100.00;98647.50;10220224;29;20047;-68
2024/02/10 11:17:17;;;;;;;1999.90;999.90;;;;;;;12.52;100.00;98644.25;10221048;29;20075;-68
2024/02/10 11:22:25;;;;;;;1999.90;999.90;;;;;;;12.49;100.00;98638.50;10220307;29;20476;-68
2024/02/10 11:27:30;;;;;;;1999.90;999.90;;;;;;;12.77;100.00;98640.00;10218999;29;20504;-68
2024/02/10 11:32:33;;;;;;;1999.90;999.90;;;;;;;12.98;100.00;98637.00;10220600;29;20050;-68
2024/02/10 11:37:36;;;;;;;1999.90;999.90;;;;;;;12.78;100.00;98632.97;10203535;29;20047;-68
2024/02/10 11:42:39;;;;;;;1999.90;999.90;;;;;;;13.16;100.00;98626.44;10219608;29;20499;-68
2024/02/10 11:47:43;;;;;;;1999.90;999.90;;;;;;;13.38;100.00;98618.97;10220051;29;20058;-68
2024/02/10 11:52:45;;;;;;;1999.90;999.90;;;;;;;13.55;97.96;98610.16;10220268;29;20059;-68
2024/02/10 11:57:48;;;;;;;1999.90;999.90;;;;;;;13.55;99.28;98614.59;10218546;29;20055;-68
2024/02/10 12:02:51;;;;;;;1999.90;999.90;;;;;;;14.20;97.71;98607.75;10219501;29;20047;-68
2024/02/10 12:07:54;;;;;;;1999.90;999.90;;;;;;;13.74;94.37;98608.22;10218699;29;20471;-68
2024/02/10 12:12:56;;;;;;;1999.90;999.90;;;;;;;13.87;94.17;98602.47;10218419;29;20043;-68
2024/02/10 12:17:59;;;;;;;1999.90;999.90;;;;;;;13.80;95.49;98606.75;10218957;29;20136;-68
2024/02/10 12:23:02;;;;;;;1999.90;999.90;;;;;;;13.50;93.46;98608.97;10218242;29;20060;-68
2024/02/10 12:28:05;;;;;;;1999.90;999.90;;;;;;;13.88;94.03;98604.94;10217467;29;20059;-69
2024/02/10 12:33:09;;;;;;;1999.90;999.90;;;;;;;13.46;93.95;98600.59;10218797;29;20049;-68
2024/02/10 12:38:12;;;;;;;1999.90;999.90;;;;;;;13.70;94.28;98607.72;10230343;23;20099;-70
2024/02/10 12:43:15;;;;;;;1999.90;999.90;;;;;;;14.29;93.69;98604.16;10216905;29;20044;-70
2024/02/10 12:48:17;;;;;;;1999.90;999.90;;;;;;;13.96;94.52;98612.03;10217833;29;20059;-70
2024/02/10 12:53:20;;;;;;;1999.90;999.90;;;;;;;13.89;92.67;98625.00;10217544;29;20056;-70
2024/02/10 12:58:23;;;;;;;1999.90;999.90;;;;;;;14.01;92.81;98617.63;10216810;29;20074;-70
2024/02/10 13:03:28;;;;;;;1999.90;999.90;;;;;;;13.89;nan;98618.94;10216646;29;20486;-70
2024/02/10 13:08:30;;;;;;;1999.90;999.90;;;;;;;14.05;93.26;98615.47;10215202;29;20418;-70
2024/02/10 13:13:33;;;;;;;1999.90;999.90;;;;;;;13.49;94.88;98615.22;10216023;29;20511;-70
2024/02/10 13:18:36;;;;;;;1999.90;999.90;;;;;;;13.95;94.07;98610.38;10216587;29;20075;-69
2024/02/10 13:23:49;;;;;;;1999.90;999.90;;;;;;;13.69;96.14;98608.69;10215638;29;20047;-69
2024/02/10 13:28:51;;;;;;;1999.90;999.90;;;;;;;13.73;96.34;98602.16;10216483;29;20056;-69
2024/02/10 13:33:57;;;;;;;1999.90;999.90;;;;;;;13.87;96.17;98598.06;10216030;29;20051;-70
2024/02/10 14:00:38;;;;;;;1999.90;999.90;;;;;;;13.34;96.01;98592.19;10215356;29;20058;-69
2024/02/10 14:10:57;;;;;;;1999.90;999.90;;;;;;;13.50;93.29;98593.19;10213356;29;20558;-70
2024/02/10 14:16:00;;;;;;;1999.90;999.90;;;;;;;13.30;94.22;98590.84;10214285;29;20388;-70
2024/02/10 14:26:39;;;;;;;1999.90;999.90;;;;;;;13.73;97.18;98591.63;10206365;29;20499;-69
2024/02/10 14:31:47;;;;;;;1999.90;999.90;;;;;;;13.53;95.21;98604.25;10213630;29;20052;-70
2024/02/10 14:36:55;;;;;;;1999.90;999.90;;;;;;;13.32;95.86;98594.16;10222507;29;20044;-70
2024/02/10 14:41:58;;;;;;;1999.90;999.90;;;;;;;13.54;96.71;98594.53;10222595;29;20056;-70
2024/02/10 14:47:02;;;;;;;1999.90;999.90;;;;;;;13.55;99.13;98604.91;10220601;29;20051;-70
2024/02/10 14:52:05;;;;;;;1999.90;999.90;;;;;;;13.50;99.29;98601.94;10220439;29;20059;-70
2024/02/10 14:57:07;;;;;;;1999.90;999.90;;;;;;;13.66;98.48;98601.13;10221975;29;20130;-70
2024/02/10 15:02:09;;;;;;;1999.90;999.90;;;;;;;13.75;98.02;98594.91;10221213;29;20135;-70
2024/02/10 15:07:12;;;;;;;1999.90;999.90;;;;;;;13.61;99.01;98598.16;10221485;29;20048;-70
2024/02/10 15:12:15;;;;;;;1999.90;999.90;;;;;;;13.34;100.00;98597.44;10219656;29;20055;-70
2024/02/10 15:17:19;;;;;;;1999.90;999.90;;;;;;;13.25;100.00;98587.88;10221182;29;20134;-70
2024/02/10 15:22:21;;;;;;;1999.90;999.90;;;;;;;13.03;100.00;98589.25;10221209;29;20107;-70
2024/02/10 15:27:24;;;;;;;1999.90;999.90;;;;;;;12.85;100.00;98597.22;10221335;29;20106;-70
2024/02/10 15:32:27;;;;;;;1999.90;999.90;;;;;;;12.81;100.00;98604.59;10220473;29;20055;-70
2024/02/10 15:37:30;;;;;;;1999.90;999.90;;;;;;;12.78;100.00;98617.22;10220285;29;20143;-70
2024/02/10 15:42:32;;;;;;;1999.90;999.90;;;;;;;12.72;100.00;98621.25;10219710;29;20058;-70
2024/02/10 15:47:34;;;;;;;1999.90;999.90;;;;;;;12.54;100.00;98613.44;10219250;29;20055;-70
2024/02/10 15:52:37;;;;;;;1999.90;999.90;;;;;;;12.66;100.00;98624.53;10219813;29;20060;-70
2024/02/10 15:57:39;;;;;;;1999.90;999.90;;;;;;;12.42;100.00;98614.66;10219762;29;20130;-70
2024/02/10 16:02:41;;;;;;;1999.90;999.90;;;;;;;12.29;100.00;98611.59;10218354;29;20059;-70
2024/02/10 16:07:51;;;;;;;1999.90;999.90;;;;;;;12.40;100.00;98616.63;10219584;29;20055;-70
2024/02/10 16:12:55;;;;;;;1999.90;999.90;;;;;;;16.93;77.99;98609.63;10218245;29;20131;-70
2024/02/10 16:17:58;;;;;;;1999.90;999.90;;;;;;;16.46;74.48;98608.91;10217802;29;20052;-70
2024/02/10 16:23:01;;;;;;;1999.90;999.90;;;;;;;17.19;75.04;98605.69;10218729;29;20043;-70
2024/02/10 16:28:06;;;;;;;1999.90;999.90;;;;;;;17.41;73.69;98610.03;10218618;29;20083;-70
2024/02/10 16:33:09;;;;;;;1999.90;999.90;;;;;;;16.97;73.48;98594.22;10218158;29;20123;-70
2024/02/10 16:38:12;;;;;;;1999.90;999.90;;;;;;;17.58;73.05;98600.03;10217359;29;20066;-70
2024/02/10 16:43:15;;;;;;;1999.90;999.90;;;;;;;17.19;72.50;98593.28;10218151;29;20076;-69
2024/02/10 16:48:20;;;;;;;1999.90;999.90;;;;;;;17.23;72.72;98591.09;10217186;29;20476;-69
2024/02/10 16:53:23;;;;;;;1999.90;999.90;;;;;;;17.15;71.92;98593.84;10217370;29;20506;-69
2024/02/10 16:58:29;;;;;;;1999.90;999.90;;;;;;;16.58;72.93;98584.72;10217483;29;20055;-69
2024/02/10 17:03:32;;;;;;;1999.90;999.90;;;;;;;11.83;100.00;98596.78;10217229;29;20058;-70
2024/02/10 17:08:36;;;;;;;1999.90;999.90;;;;;;;11.63;100.00;98600.50;10216408;29;20115;-70
2024/02/10 17:13:39;;;;;;;1999.90;999.90;;;;;;;11.49;100.00;98599.22;10216776;29;20050;-69
2024/02/10 17:18:41;;;;;;;1999.90;999.90;;;;;;;11.31;100.00;98604.44;10216639;29;20054;-69
2024/02/10 17:23:45;;;;;;;1999.90;999.90;;;;;;;11.16;100.00;98611.94;10216365;29;20048;-69
2024/02/10 17:28:48;;;;;;;1999.90;999.90;;;;;;;11.04;100.00;98605.25;10215660;29;20051;-70
2024/02/10 17:33:50;;;;;;;1999.90;999.90;;;;;;;11.26;100.00;98604.88;10214934;29;20062;-69
2024/02/10 17:38:55;;;;;;;1999.90;999.90;;;;;;;11.23;100.00;98609.56;10215508;29;20539;-69
2024/02/10 17:43:59;;;;;;;1999.90;999.90;;;;;;;11.10;100.00;98617.78;10215788;29;20051;-69
2024/02/10 17:49:01;;;;;;;1999.90;999.90;;;;;;;10.97;100.00;98610.25;10214930;29;20083;-69
2024/02/10 17:54:06;;;;;;;1999.90;999.90;;;;;;;11.10;100.00;98609.94;10215546;29;20103;-69
2024/02/10 17:59:10;;;;;;;1999.90;999.90;;;;;;;11.01;100.00;98622.09;10214243;29;20051;-69
2024/02/10 18:04:14;;;;;;;1999.90;999.90;;;;;;;11.14;100.00;98613.88;10213465;29;20051;-69
2024/02/10 18:09:17;;;;;;;1999.90;999.90;;;;;;;11.05;100.00;98628.69;10214265;29;20087;-69
2024/02/10 18:14:20;;;;;;;1999.90;999.90;;;;;;;11.13;100.00;98626.16;10214921;29;20061;-69
2024/02/10 18:19:23;;;;;;;1999.90;999.90;;;;;;;11.30;100.00;98629.81;10214869;29;20051;-69
2024/02/10 18:24:26;;;;;;;1999.90;999.90;;;;;;;11.30;100.00;98631.63;10214614;29;20047;-69
2024/02/10 18:29:32;;;;;;;1999.90;999.90;;;;;;;11.43;100.00;98629.47;10197713;29;20134;-69
2024/02/10 18:34:35;;;;;;;1999.90;999.90;;;;;;;11.37;100.00;98629.22;10214469;29;20399;-69
2024/02/10 18:39:37;;;;;;;1999.90;999.90;;;;;;;11.53;100.00;98635.47;10214325;29;20059;-69
2024/02/10 18:44:41;;;;;;;1999.90;999.90;;;;;;;11.46;100.00;98634.41;10214419;29;20059;-69
2024/02/10 18:49:45;;;;;;;1999.90;999.90;;;;;;;11.42;100.00;98646.16;10214321;29;20048;-69
2024/02/10 18:54:47;;;;;;;1999.90;999.90;;;;;;;11.48;100.00;98640.34;10214157;29;20052;-69
2024/02/10 18:59:49;;;;;;;1999.90;999.90;;;;;;;11.39;100.00;98646.44;10214183;29;20065;-69
2024/02/10 19:04:53;;;;;;;1999.90;999.90;;;;;;;11.33;100.00;98650.47;10213418;29;20047;-69
2024/02/10 19:09:55;;;;;;;1999.90;999.90;;;;;;;11.23;100.00;98646.25;10214030;29;20063;-69
2024/02/10 19:14:58;;;;;;;1999.90;999.90;;;;;;;11.27;100.00;98648.44;10213782;29;20052;-69
2024/02/10 19:20:01;;;;;;;1999.90;999.90;;;;;;;11.12;100.00;98649.88;10215006;29;20075;-69
2024/02/10 19:25:06;;;;;;;1999.90;999.90;;;;;;;11.09;100.00;98643.13;10219247;29;20452;-69
2024/02/10 19:30:10;;;;;;;1999.90;999.90;;;;;;;11.14;100.00;98647.94;10220201;29;20058;-69
2024/02/10 19:35:19;;;;;;;1999.90;999.90;;;;;;;11.12;100.00;98644.66;10218820;29;20055;-69
2024/02/10 19:40:23;;;;;;;1999.90;999.90;;;;;;;11.10;100.00;98639.53;10219888;29;20059;-69
2024/02/10 19:45:25;;;;;;;1999.90;999.90;;;;;;;11.25;100.00;98645.13;10219656;29;20089;-69
2024/02/10 19:50:28;;;;;;;1999.90;999.90;;;;;;;11.25;100.00;98657.41;10220093;29;20051;-68
2024/02/10 19:55:32;;;;;;;1999.90;999.90;;;;;;;11.13;100.00;98654.97;10219814;29;20087;-69
2024/02/10 20:00:35;;;;;;;1999.90;999.90;;;;;;;10.90;100.00;98661.53;10219733;29;20079;-69
2024/02/10 20:05:37;;;;;;;1999.90;999.90;;;;;;;10.89;100.00;98671.19;10219681;29;20048;-69
2024/02/10 20:10:40;;;;;;;1999.90;999.90;;;;;;;10.88;100.00;98672.16;10219431;29;20055;-69
2024/02/10 20:15:42;;;;;;;1999.90;999.90;;;;;;;10.95;100.00;98670.59;10219075;29;20048;-69
2024/02/10 20:20:44;;;;;;;1999.90;999.90;;;;;;;11.03;100.00;98675.13;10217210;29;20609;-69
2024/02/10 20:25:47;;;;;;;1999.90;999.90;;;;;;;10.94;100.00;98668.13;10201451;29;20400;-69
2024/02/10 20:30:50;;;;;;;1999.90;999.90;;;;;;;11.02;100.00;98662.19;10217610;29;20063;-69
2024/02/10 20:35:53;;;;;;;1999.90;999.90;;;;;;;10.83;100.00;98674.38;10218285;29;20126;-69
2024/02/10 20:40:55;;;;;;;1999.90;999.90;;;;;;;10.84;100.00;98669.94;10217668;29;20067;-69
2024/02/10 20:45:58;;;;;;;1999.90;999.90;;;;;;;10.88;100.00;98666.09;10217383;29;20507;-68
2024/02/10 20:51:03;;;;;;;1999.90;999.90;;;;;;;10.88;100.00;98666.09;10217820;29;20059;-69
2024/02/10 20:56:08;;;;;;;1999.90;999.90;;;;;;;10.89;100.00;98667.72;10217494;29;20395;-69
2024/02/10 21:01:12;;;;;;;1999.90;999.90;;;;;;;10.92;100.00;98667.44;10216317;29;20059;-68
2024/02/10 21:06:14;;;;;;;1999.90;999.90;;;;;;;10.71;100.00;98660.63;10216176;29;20106;-68
2024/02/10 21:11:17;;;;;;;1999.90;999.90;;;;;;;10.75;100.00;98666.38;10217058;29;20055;-69
2024/02/10 21:16:20;;;;;;;1999.90;999.90;;;;;;;10.75;100.00;98669.81;10216939;29;20103;-69
2024/02/10 21:21:23;;;;;;;1999.90;999.90;;;;;;;10.74;100.00;98668.19;10216663;29;20107;-69
2024/02/10 21:26:26;;;;;;;1999.90;999.90;;;;;;;10.75;100.00;98671.63;10215835;29;20048;-69
2024/02/10 21:31:29;;;;;;;1999.90;999.90;;;;;;;10.83;100.00;98669.13;10215179;29;20048;-69
2024/02/10 21:36:35;;;;;;;1999.90;999.90;;;;;;;10.70;100.00;98663.38;10216544;29;20082;-69
2024/02/10 21:41:37;;;;;;;1999.90;999.90;;;;;;;10.72;100.00;98662.25;10215137;29;20056;-69
2024/02/10 21:46:40;;;;;;;1999.90;999.90;;;;;;;10.82;100.00;98662.22;10214297;29;20080;-69
2024/02/10 21:51:52;;;;;;;1999.90;999.90;;;;;;;10.91;100.00;98657.94;10215595;29;20051;-69
2024/02/10 21:56:55;;;;;;;1999.90;999.90;;;;;;;10.71;100.00;98647.53;10214223;29;20384;-69
2024/02/10 22:01:59;;;;;;;1999.90;999.90;;;;;;;10.83;100.00;98657.84;10214727;29;20053;-69
2024/02/10 22:07:05;;;;;;;1999.90;999.90;;;;;;;10.66;100.00;98648.91;10214066;29;20079;-69
2024/02/10 22:12:07;;;;;;;1999.90;999.90;;;;;;;10.74;100.00;98641.16;10214034;29;20058;-69
2024/02/10 22:17:10;;;;;;;1999.90;999.90;;;;;;;10.71;100.00;98625.78;10214852;29;20050;-69
2024/02/10 22:22:13;;;;;;;1999.90;999.90;;;;;;;10.67;100.00;98617.34;10214827;29;20055;-69
2024/02/10 22:27:15;;;;;;;1999.90;999.90;;;;;;;10.64;100.00;98616.81;10214725;29;20048;-69
2024/02/10 22:32:18;;;;;;;1999.90;999.90;;;;;;;10.67;100.00;98622.59;10214598;29;20052;-69
2024/02/10 22:37:23;;;;;;;1999.90;999.90;;;;;;;10.50;100.00;98628.56;10214467;29;20084;-69
2024/02/10 22:42:31;;;;;;;1999.90;999.90;;;;;;;10.62;100.00;98618.75;10214335;29;20138;-69